Beranda Manga Series Daiya no A – Act II Manga

Daiya no A – Act II Manga

diamond no ace 2 201x300 Daiya no A   Act II MangaSekuel ke Diamond ada Ace.
Kelanjutan dari Daiya no A – kami terus maju di Koshien, turnamen bisbol sekolah tinggi terbesar di Jepang.

TitleDate
Boruto 50 – Hampir Mati2020/09/222020-09-22 12:28:32
One Piece 990 – Prajurit Penyendiri2020/09/122020-09-12 10:12:29
Boruto 049 – Sudah Dipersiapkan2020/09/072020-09-07 23:22:50
One Piece 989 – Kita Tidak Akan Kalah2020/09/072020-09-07 22:57:07
One Piece 988 – Maaf Membuatmu Menunggu2020/08/202020-08-20 21:10:59
One Piece 987 – Pengikut Setia yang Hebat2020/08/082020-08-08 10:17:47
One Piece 986 – Namaku Adalah2020/08/012020-08-01 08:45:28
Boruto 048 – Time Limit2020/07/252020-07-25 14:59:52
One Piece 985 – Rencana Onigashima Baru2020/07/182020-07-18 11:58:52
One Piece 984 – Panduan Hidup2020/07/032020-07-03 21:19:49
Boruto 047 – Takdir yang Ditentukan2020/06/292020-06-29 08:28:21
One Piece 984 Jadwal Rilis, Bocoran, Baca Dimana?2020/06/232020-06-23 15:35:35
Download Komikfox – Android App2020/06/222020-06-22 19:09:42
10+ Kata Mutiara Bijak Roronoa Zoro – One Piece2020/06/222020-06-22 12:10:41
One Piece 983 – Halilintar2020/06/212020-06-21 08:29:54
One Piece 982 – Orang Kurang Ajar2020/06/122020-06-12 17:00:13
6 Fakta Izo, Pengikut Oden yang Jadi Anak Buah Shirohige2020/06/112020-06-11 12:57:33
Download & Save Status Whatsapp Teman2020/06/062020-06-06 08:44:11
10+ Kata Mutiara Bijak Luffy – One Piece2020/05/312020-05-31 21:10:08
One Piece 981 – Bentrokan2020/05/312020-05-31 08:03:33
Boruto 046 – Identitas Sebenarnya2020/05/202020-05-20 17:08:42
One Piece 980 – Musik Pertempuran2020/05/102020-05-10 18:58:00
One Piece 979 – Masalah Keluarga2020/05/012020-05-01 17:08:38
One Piece 978 – Kemunculan Tobi Roppo2020/04/242020-04-24 09:36:37
Boruto Chapter 46 Kapan Rilis & Review: Boruto Manga 452020/04/222020-04-22 10:35:45
Boruto 045 – Koji Kashin vs Jigen2020/04/212020-04-21 14:20:55
One Piece 977 – Pestanya Tidak Dimulai Sekarang2020/04/102020-04-10 14:21:39
Bleach 007 – The Pink Checked Parakeet2020/04/032020-04-03 19:58:09
Bleach 006 – Death for Me2020/04/032020-04-03 19:56:58
Bleach 005 – Bad for Superfun2020/04/032020-04-03 19:52:25
Bleach 004 – Why Do You Eat it?2020/04/032020-04-03 19:46:17
Bleach 003 – Memories in The Rain2020/04/032020-04-03 19:40:35
One Piece 976 – Izinkan Aku Memperkenalkan Diri2020/04/032020-04-03 19:27:48
Bleach 002 – Goodbye2020/03/302020-03-30 20:23:14
Bleach 001 – The Death & Strawberry2020/03/302020-03-30 20:04:10
Boruto 044 – Kodok Uap2020/03/232020-03-23 06:24:40
One Piece 975 – Rencana Kinemon2020/03/202020-03-20 19:38:11
One Piece 974 – Menuju Onigashima2020/03/142020-03-14 09:39:17
One Piece 973 – Klan Kozuki2020/03/072020-03-07 12:19:43
Kabar Buruk! Eiichiro Oda Sakit, Bikin One Piece 973 Tertunda2020/02/282020-02-28 16:20:13
Boruto 043 – Manifestasi2020/02/222020-02-22 10:43:09
Naruto 266 – Kemunculan Sasori2020/02/222020-02-22 09:29:26
One Piece 972 – Aku Terlahir Untuk Direbus2020/02/212020-02-21 15:25:40
Naruto: Slugfest Android2020/02/182020-02-18 19:51:38
Ultimate Ninja Blazing2020/02/182020-02-18 19:49:59
Naruto X Boruto Ninja Voltage2020/02/182020-02-18 19:41:02
Naruto 265 – Nenek Chiyo dan Sakura2020/02/182020-02-18 19:38:41
Naruto 264 – Seni Sasori2020/02/182020-02-18 19:36:56
Naruto 263 – Tangisan Hebat2020/02/182020-02-18 19:36:09
Naruto 262 – Pemikiran Adu Kecepatan2020/02/182020-02-18 19:34:22
Naruto 261 – Jinchuuriki2020/02/182020-02-18 19:29:10
Naruto 260 – Kakashi vs Itachi2020/02/182020-02-18 19:19:35
Naruto 259 – Kekuatan Itachi2020/02/182020-02-18 19:17:53
Naruto 258 – Gai vs Kisame2020/02/182020-02-18 19:16:58
Naruto 257 – Buah Pengalaman Kakashi2020/02/182020-02-18 19:14:09
Naruto 256 – Mereka yang Berdiri di Jalan2020/02/182020-02-18 19:10:46
Naruto 255 – Mendekati2020/02/182020-02-18 12:57:38
Naruto 254 – Saudara2020/02/182020-02-18 12:56:28
Naruto 253 – Bala Bantuan yang Dapat Diandalkan2020/02/182020-02-18 12:47:10
Naruto 252 – Pemikiran2020/02/182020-02-18 12:46:24
Naruto 251 – Menuju Negeri Pasir2020/02/182020-02-18 12:34:54
Naruto 250 – Misi Pertama Tim Baru2020/02/182020-02-18 12:17:10
Naruto 249 – Sebagai Kazekage2020/02/182020-02-18 12:14:38
Naruto 248 – Penyerangan Negeri Pasir2020/02/182020-02-18 12:11:03
Naruto 247 – Penyerbu Negeri Pasir2020/02/182020-02-18 12:10:02
Naruto 246 – Perkembangan Dua Anak2020/02/182020-02-18 11:59:51
Naruto 245 – Naruto Kembali2020/02/182020-02-18 11:45:36
Naruto 244 – Pahlawan Sharingan2020/02/182020-02-18 11:39:22
Naruto 243 – Sekarang2020/02/182020-02-18 11:37:19
Naruto 242 – Ninja Cengeng2020/02/182020-02-18 11:32:29
Naruto 241 – Pahlawan Sebenarnya2020/02/182020-02-18 11:32:06
Naruto 240 – Kerja Sama Tim2020/02/182020-02-18 11:29:32
Naruto 239 – Misi Dimulai2020/02/182020-02-18 11:29:22
Naruto 238 – Hari Keberangkatan2020/02/182020-02-18 11:28:36
Naruto 237 – Bodoh2020/02/182020-02-18 11:28:15
Naruto 236 – Janji yang Tak Bisa Kutepati2020/02/182020-02-18 11:27:52
Naruto 235 – Misi Gagal2020/02/172020-02-17 23:54:20
Naruto 234 – Hari Perpisahan2020/02/172020-02-17 23:54:02
Naruto 234 – Akhir yang Buruk2020/02/172020-02-17 23:53:25
Naruto 232 – Lembah Akhir2020/02/172020-02-17 23:42:19
Naruto 231 – Kekuatan Istimewa2020/02/172020-02-17 23:40:15
Naruto 230 – Waktunya Bangkit2020/02/172020-02-17 23:38:52
Naruto 229 – Ikatan2020/02/172020-02-17 23:38:31
Naruto 228 – Firasat Kakashi2020/02/172020-02-17 23:38:13
Naruto 227 – Chidori vs Rasengan2020/02/172020-02-17 23:37:47
Naruto 226 – Untuk Temanku2020/02/172020-02-17 23:33:44
Naruto 225 – Dengan Kegelapan2020/02/172020-02-17 21:43:28
Naruto 224 – Hari Itu2020/02/172020-02-17 19:22:34
Naruto 223 – Sasuke dan Ayahnya2020/02/172020-02-17 19:19:43
Naruto 222 – Kecurigaan Kepada Itachi2020/02/172020-02-17 19:17:39
Naruto 221 – Kakak yang Terlalu Jauh2020/02/172020-02-17 19:16:04
Naruto 220 – Sasuke dan Itachi2020/02/172020-02-17 19:13:59
Naruto 219 – Masa Lalu dan Masa Depan2020/02/172020-02-17 19:13:06
Naruto 218 – Itachi dan Sasuke2020/02/172020-02-17 19:12:09
Naruto 217 – Demi Orang yang Berbeda2020/02/172020-02-17 19:11:49
Naruto 216 – Tombak dan Perisai2020/02/172020-02-17 19:09:30
Naruto 215 – Gaara dari Padang Pasir2020/02/172020-02-17 19:07:52
Naruto 214 – Mundur Sementara2020/02/172020-02-17 19:04:01
Naruto 213 – Hutang Budi Besar2020/02/172020-02-17 16:46:03
Naruto 212 – Semangat, Semangat2020/02/172020-02-17 16:42:59
Naruto 211 – Keanehan2020/02/172020-02-17 16:41:28
Naruto 210 – Rahasia Lee2020/02/172020-02-17 16:35:23
Naruto 209 – Penolong Tiba2020/02/172020-02-17 16:34:45
Naruto 208 – Yang Pertama Tipuan2020/02/172020-02-17 16:33:27
Naruto 207 – Hishakakuochi2020/02/172020-02-17 16:31:40
Naruto 206 – Keadaan Terdesak2020/02/172020-02-17 16:29:31
Naruto 205 – Keputusan Kiba2020/02/172020-02-17 16:26:58
Naruto 204 – Kemampuan Ukon2020/02/172020-02-17 16:25:19
Naruto 203 – Rahasia Sakon2020/02/172020-02-17 16:23:53
Naruto 202 – Tiga Permintaan2020/02/172020-02-17 16:23:40
Naruto 201 – Salah Perhitungan2020/02/172020-02-17 14:30:53
Naruto 200 – Sesuai Perhitungan2020/02/172020-02-17 13:55:08
Naruto 199 – Keinginan2020/02/172020-02-17 13:54:16
Naruto 198 – Tensei2020/02/172020-02-17 13:53:56
Naruto 197 – Siap Mati2020/02/172020-02-17 13:46:04
Naruto 196 – Musuh Terkuat2020/02/172020-02-17 13:45:38
Naruto 195 – Cara Menerobos2020/02/172020-02-17 13:44:27
Naruto 194 – Saling Menyerang2020/02/172020-02-17 13:43:53
Naruto 194 – Game Over2020/02/172020-02-17 13:42:54
Naruto 192 – Rencana2020/02/172020-02-17 13:42:07
Naruto 191 – Teman-teman2020/02/172020-02-17 13:37:45
Naruto 190 – Tak Termaafkan2020/02/172020-02-17 11:49:40
Naruto 189 – Kekuatan yang Dipercaya2020/02/172020-02-17 11:49:13
Naruto 188 – Shinobi Konoha2020/02/172020-02-17 11:48:36
Naruto 187 – Mempertaruhkan Hidupmu2020/02/172020-02-17 11:47:59
Naruto 186 – Strategi Gagal2020/02/172020-02-17 11:47:22
Naruto 185 – Kejar Oto2020/02/172020-02-17 11:46:14
Naruto 184 – Oto vs Konoha2020/02/172020-02-17 11:45:39
Naruto 183 – Janji Seumur Hidup2020/02/172020-02-17 11:45:10
Naruto 182 – Berkumpul2020/02/172020-02-17 11:44:34
Naruto 181 – Awal Pertarungan2020/02/172020-02-17 11:44:04
Naruto 180 – Aku Berjanji2020/02/172020-02-17 11:42:47
Naruto 179 – Jangan Lupa2020/02/172020-02-17 11:42:25
Naruto 178 – Undangan Oto2020/02/172020-02-17 11:41:47
Naruto 177 – Oto No Yoninshuu2020/02/172020-02-17 11:41:12
Naruto 176 – Yang Disebut Rival2020/02/172020-02-17 11:40:07
Naruto 175 – Naruto vs Sasuke2020/02/172020-02-17 11:38:54
Naruto 174 – Kenangan Setiap Orang2020/02/172020-02-17 11:38:28
Naruto 173 – Menderita2020/02/172020-02-17 11:37:16
Naruto 172 – Pulang Kembali2020/02/172020-02-17 11:36:39
Naruto 171 – Pewaris2020/02/172020-02-17 11:35:56
Naruto 170 – Pertarungan Shannin2020/02/172020-02-17 11:33:23
Naruto 169 – Mempertaruhkan Nyawa2020/02/172020-02-17 11:31:48
Naruto 168 – Sekali Lagi2020/02/172020-02-17 11:30:42
Naruto 167 – Sesuai Janji2020/02/172020-02-17 11:29:15
Naruto 166 – Bakat Shinobi2020/02/172020-02-17 11:28:29
Naruto 165 – Naruto, Serang!2020/02/172020-02-17 11:26:56
Naruto 164 – Ahli2020/02/172020-02-17 11:23:32
Naruto 163 – Paling Menua2020/02/172020-02-17 11:22:48
Naruto 162 – Pertentangan Hati2020/02/172020-02-17 11:22:01
Naruto 161 – Keputusan Tsunade2020/02/172020-02-17 11:19:26
Naruto 160 – Kalung Pembawa Kematian2020/02/172020-02-17 11:13:51
Naruto 159 – Pertaruhan2020/02/172020-02-17 11:13:14
Naruto 158 – Tak Akan Kumaafkan2020/02/172020-02-17 11:12:49
Naruto 157 – Jawabannya Adalah2020/02/172020-02-17 11:11:45
Naruto 156 – Transaksi2020/02/172020-02-17 11:11:20
Naruto 155 – Tahap Ketiga2020/02/172020-02-17 11:04:34
Naruto 154 – Kedatangan2020/02/172020-02-17 11:03:57
Naruto 153 – Para Pencari2020/02/172020-02-17 10:48:31
Naruto 152 – Tahap Kedua2020/02/172020-02-17 10:47:46
Naruto 151 – Kesempatan2020/02/172020-02-17 10:46:36
Naruto 150 – Latihan Dimulai2020/02/172020-02-17 10:44:09
Naruto 149 – Legendaris2020/02/172020-02-17 10:42:45
Naruto 148 – Kekuatan Itachi2020/02/172020-02-17 10:42:08
Naruto 147 – Pertarunganku2020/02/172020-02-17 10:41:02
Naruto 146 – Bersama Kebencian2020/02/172020-02-17 10:40:36
Naruto 145 – Ingatan Kehancuran2020/02/172020-02-17 10:38:30
Naruto 144 – Persuasi2020/02/172020-02-17 10:37:43
Naruto 143 – Peninggalan Hokage Keempat2020/02/172020-02-17 10:36:36
Naruto 142 – Kakashi vs Itachi2020/02/172020-02-17 10:35:52
Naruto 141 – Uchiha Itachi2020/02/172020-02-17 10:35:10
Naruto 140 – Kedekatan2020/02/172020-02-17 10:30:03
Naruto 139 – Nama Orang itu Adalah2020/02/172020-02-17 10:28:26
Naruto 138 – Pertempuran Terakhir2020/02/172020-02-17 10:27:30
Naruto 137 – Shinobi Konoha2020/02/172020-02-17 10:26:37
Naruto 136 – Pukulan Terakhir2020/02/172020-02-17 09:58:15
Naruto 135 – Pertarungan Bak Badai2020/02/172020-02-17 09:51:27
Naruto 134 – Naruto Ninpouchou2020/02/172020-02-17 09:46:57
Naruto 133 – Orang Kuat2020/02/172020-02-17 09:40:45
Naruto 132 – Cahaya dan Kegelapan2020/02/172020-02-17 07:10:49
Naruto 131 – Laki-laki Bernama Gaara2020/02/172020-02-17 07:07:52
Naruto 130 – Cinta2020/02/172020-02-17 07:07:05
Naruto 129 – Pain2020/02/172020-02-17 06:09:18
Naruto 128 – Melewati Batas2020/02/172020-02-17 06:07:21
Naruto 127 – Merasa Hidup2020/02/172020-02-17 06:03:30
Naruto 126 – Ceroboh2020/02/162020-02-16 21:14:55
Naruto 125 – Kebangkitan2020/02/162020-02-16 18:45:07
Naruto 124 – Pertarungan Abadi2020/02/162020-02-16 18:44:38
Naruto 123 – Segel Terakhir2020/02/162020-02-16 18:44:15
Naruto 122 – Tekad yang Diwariskan2020/02/162020-02-16 18:43:47
Naruto 121 – Eksperimen Mengerikan2020/02/162020-02-16 18:43:11
Naruto 120 – Hokage vs Hokage2020/02/162020-02-16 18:40:34
Naruto 119 – Hidupku2020/02/162020-02-16 18:37:27
Naruto 118 – Jejak Langkah2020/02/162020-02-16 18:36:05
Naruto 117 – Misi yang Diberikan2020/02/162020-02-16 18:35:33
Naruto 116 – Kekacauan Konoha2020/02/162020-02-16 18:34:20
Naruto 115 – Ujian Chuunin Selesai2020/02/162020-02-16 18:31:39
Naruto 114 – Serangan2020/02/162020-02-16 18:31:15
Naruto 113 – Alasan Keterlambatan2020/02/162020-02-16 18:30:25
Naruto 112 – Taijutsu Sasuke2020/02/162020-02-16 18:28:59
Naruto 111 – Sasuke vs Gaara2020/02/162020-02-16 18:28:04
Naruto 110 – Akhirnya2020/02/162020-02-16 18:26:24
Naruto 109 – Tarian Konoha2020/02/162020-02-16 18:25:43
Naruto 108 – Rencana untuk Menang2020/02/162020-02-16 18:24:50
Naruto 107 – Laki-laki Tak Punya Kemauan2020/02/162020-02-16 18:24:04
Naruto 106 – Sasuke Gagal2020/02/162020-02-16 18:23:13
Naruto 105 – Penerbangan Hebat2020/02/162020-02-16 18:21:01
Naruto 104 – Kekuatan untuk Berubah2020/02/162020-02-16 18:20:14
Naruto 103 – Pecundang2020/02/162020-02-16 18:19:34
Naruto 102 – Burung dalam Sangkar2020/02/162020-02-16 18:19:01
Naruto 101 – Yang Lain2020/02/162020-02-16 18:18:25
Naruto 100 – Penerbangan Hebat2020/02/162020-02-16 17:18:39
Naruto 099 – Babak Utama Dimulai2020/02/162020-02-16 17:18:02
Naruto 098 – Kebanggaan Kegagalan2020/02/162020-02-16 17:17:54
Naruto 097 – Alasan Ada2020/02/162020-02-16 17:16:42
Naruto 096 – Mendadak Menyusup2020/02/162020-02-16 17:15:54
Naruto 095 – Pertemuan Tak Terduga2020/02/162020-02-16 17:13:41
Naruto 094 – Kunci2020/02/162020-02-16 17:12:15
Naruto 093 – Minat Masing-masing2020/02/162020-02-16 17:06:42
Naruto 092 – Konoha, Oto, Suna dan2020/02/162020-02-16 17:04:41
Naruto 091 – Syarat Jadi Murid2020/02/162020-02-16 17:00:05
One Piece 971 – Direbus Hidup Hidup2020/02/162020-02-16 10:09:15
Naruto 090 – Bagaimana Dengan Latihannya2020/02/162020-02-16 10:03:25
Naruto 089 – Permintaan Naruto2020/02/162020-02-16 09:30:51
Naruto 088 – Bagaimana Keadaan Sasuke2020/02/162020-02-16 09:30:13
Naruto 087 – Babak Penyisihan Selesai2020/02/162020-02-16 09:28:02
Naruto 086 – Ninja Hebat2020/02/162020-02-16 08:18:53
Naruto 085 – Kali Ini Juga2020/02/162020-02-16 07:44:25
Naruto 084 – Jenius dalam Kerja Keras2020/02/162020-02-16 07:43:55
Naruto 083 – Pertahanan Absolut2020/02/162020-02-16 07:43:18
Naruto 082 – Rahasia Lee2020/02/162020-02-16 07:42:46
Naruto 081 – Gaara Melawan2020/02/162020-02-16 07:40:37
Naruto 080 – Melampaui Batas2020/02/162020-02-16 07:34:57
Naruto 078 – Klan Hyuuga2020/02/162020-02-16 07:09:19
Naruto 079 – Neji dan Hinata2020/02/162020-02-16 07:08:39
Naruto 077 – Trik Naruto2020/02/162020-02-16 07:07:47
Naruto 076 – Kebangkitan Kiba, Naruto2020/02/162020-02-16 07:06:32
Naruto 075 – Perkembangan Naruto2020/02/162020-02-16 06:58:22
Naruto 074 – Pertarungan Keenam2020/02/162020-02-16 06:57:54
Naruto 073 – Tanda Kekalahan2020/02/162020-02-16 06:55:03
Naruto 072 – Persaingan2020/02/162020-02-16 06:54:22
Naruto 071 – Tembok yang Terlalu Tinggi2020/02/162020-02-16 06:53:46
Naruto 070 – Yang Akan Tewas Adalah2020/02/162020-02-16 06:36:21
Naruto 069 – Berusaha2020/02/162020-02-16 06:36:19
Naruto 068 – Darah Klan Uchiha2020/02/162020-02-16 06:30:51
Naruto 067 – Kemampuan Berlawanan2020/02/162020-02-16 06:29:08
Naruto 066 – Permintaan Sakura2020/02/162020-02-16 06:26:23
Naruto 065 – Pertarungan Mempertaruhkan Nyawa2020/02/152020-02-15 16:52:42
Naruto 064 – Pesan Hokage2020/02/152020-02-15 16:52:16
Naruto 063 – Wajah Lain2020/02/152020-02-15 16:51:03
Naruto 062 – Tikus dalam Karung2020/02/152020-02-15 16:43:32
Naruto 061 – Jalan yang Harus Kau Tempuh2020/02/152020-02-15 16:42:35
Naruto 060 – Perubahan Terakhir2020/02/152020-02-15 16:40:27
Naruto 059 – Tragedi Pasir2020/02/152020-02-15 16:39:33
Naruto 058 – Para Saksi2020/02/152020-02-15 16:37:21
Naruto 057 – 10 Jam yang Lalu2020/02/152020-02-15 16:36:39
Naruto 056 – Kekuatan Luar Biasa2020/02/152020-02-15 16:36:02
Naruto 055 – Pertarungan Habis-Habisan2020/02/152020-02-15 16:33:44
Naruto 054 – Sakura dan Ino2020/02/152020-02-15 16:33:07
Naruto 053 – Keputusan Sakura2020/02/152020-02-15 16:32:24
Naruto 052 – Situasi Mendesak2020/02/152020-02-15 16:31:22
Naruto 051 – Makhluk Tampan2020/02/152020-02-15 16:29:40
Naruto 50 – Aku Harus2020/02/152020-02-15 16:28:58
Naruto 50 – Aku Harus2020/02/152020-02-15 16:26:46
Naruto 049 – Pecundang2020/02/152020-02-15 16:24:38
Naruto 048 – Tujuannya Adalah2020/02/152020-02-15 16:24:28
Naruto 047 – Predator2020/02/152020-02-15 16:22:02
Naruto 046 – Keputusan Sakura2020/02/152020-02-15 16:19:53
Naruto 045 – Ujian Kedua2020/02/152020-02-15 16:18:21
Naruto 044 – Mereka yang Diuji2020/02/152020-02-15 16:17:31
Naruto 043 – Pertanyaan Kesepuluh2020/02/152020-02-15 16:16:29
Naruto 042 – Pertarungan Setiap Orang2020/02/152020-02-15 16:16:06
Naruto 041 – Bisikan Setan2020/02/152020-02-15 16:14:11
Naruto 040 – Ujian Pertama2020/02/152020-02-15 16:10:41
Naruto 039 – Para Peserta Ujian2020/02/152020-02-15 16:10:04
Naruto 038 – Mulai2020/02/152020-02-15 16:09:08
Naruto 037 – Para Peserta Ujian2020/02/152020-02-15 16:08:41
Naruto 036 – Sakura Depresi2020/02/152020-02-15 16:07:51
Naruto 035 – Iruka vs Kakashi2020/02/152020-02-15 16:05:41
Naruto 034 – Penyusup2020/02/152020-02-15 16:04:22
Naruto 033 – Jembatan Pahlawan2020/02/152020-02-15 16:03:56
Naruto 032 – Alat Bernama Shinobi2020/02/152020-02-15 16:03:00
Naruto 031 – Alasan Bertarung2020/02/152020-02-15 16:01:16
Naruto 030 – Masa Depan2020/02/152020-02-15 15:59:06
Naruto 029 – Orang yang Berharga2020/02/152020-02-15 15:58:18
Naruto 028 – Siluman Rubah Ekor Sembilan2020/02/152020-02-15 15:57:41
Naruto 027 – Kebangkitan2020/02/152020-02-15 15:56:41
Naruto 026 – Sharingan2020/02/152020-02-15 15:15:58
Naruto 025 – Untuk Dirimu2020/02/152020-02-15 15:14:13
Naruto 024 – Kecepatan2020/02/152020-02-15 15:13:32
Naruto 023 – Serangan Kejutan2020/02/152020-02-15 15:11:34
Naruto 022 – Rival2020/02/152020-02-15 15:09:55
Naruto 021 – Pertemuan di Hutan2020/02/152020-02-15 15:05:34
Naruto 020 – Kota yang Memiliki Pahlawan2020/02/152020-02-15 15:03:30
Naruto 019 – Simbol Keberanian2020/02/152020-02-15 15:02:29
Naruto 018 – Berlatih2020/02/152020-02-15 15:01:45
Naruto 017 – Persiapan Bertarung2020/02/152020-02-15 14:59:43
Naruto 016 – Siapa Kau?2020/02/152020-02-15 14:58:16
Naruto 015 – Kembalinya Sharingan2020/02/152020-02-15 14:56:34
Naruto 014 – Taktik Rahasia2020/02/152020-02-15 14:54:19
Boruto 042 – Regenerasi2020/02/142020-02-14 18:54:08
One Piece 970 – Oden vs Kaidou2020/02/012020-02-01 15:45:02
One Piece 969 – Raja yang Bodoh2020/01/292020-01-29 06:58:21
Boruto 042 – Serangan Bayangan Ular2020/01/262020-01-26 21:06:49
One Piece 968 – Oden Pulang2020/01/222020-01-22 20:17:06
Mengenal Joy Boy, Tokoh Bersejarah di Dunia One Piece!2020/01/052020-01-05 19:57:58
One Piece 967 – Petualangan Roger2020/01/012020-01-01 21:26:57
Boruto 041 – Naruto Terkurung2019/12/302019-12-30 13:04:17
Boruto 040 – Jutsu Tak Terlihat2019/12/302019-12-30 13:03:44
One Piece 966 – Roger dan Shirohige2019/12/232019-12-23 16:56:44
One Piece 965 – Konspirasi Klan Kurozumi2019/12/142019-12-14 11:46:12
One Piece 964 – Petualangan Oden2019/12/032019-12-03 09:50:25
One Piece 963 – Menjadi Samurai2019/11/272019-11-27 09:32:15
One Piece 962 – Daimyo dan Para Pengikutnya2019/11/172019-11-17 09:51:31
One Piece 961 – Insiden Dewa Gunung2019/11/032019-11-03 14:36:27
Boruto 039 – Bukti Bagian 22019/11/032019-11-03 01:08:56
Boruto 039 – Bukti2019/11/032019-11-03 00:50:25
Boruto 038 – Dialah Berita Buruknya Bagian 22019/11/032019-11-03 00:37:45
Boruto 038 – Dialah Berita Buruknya2019/11/022019-11-02 21:29:29
Boruto 037 – Serangan Gabungan Bagian 22019/11/022019-11-02 21:12:32
Boruto 037 – Serangan Gabungan2019/11/022019-11-02 20:53:17
Boruto 036 – Serangan Kejutan Bagian 22019/11/022019-11-02 20:21:28
Boruto 036 – Serangan Kejutan2019/11/022019-11-02 19:59:27
One Piece 960 – Kozuki Oden Muncul2019/10/282019-10-28 01:01:05
One Piece 959 – Samurai2019/10/222019-10-22 00:59:24
One Piece 958 – Pelabuhan yang Dijanjikan2019/10/052019-10-05 07:12:40
One Piece 957 – Terkuat2019/09/302019-09-30 02:20:25
One Piece 956 – Berita Besar2019/09/302019-09-30 01:49:26
One Piece 955 – Enma2019/09/292019-09-29 21:16:32
One Piece 954 – Seperti Memberi Sayap pada Naga2019/09/292019-09-29 19:43:40
One Piece 953 – Seekor Rubah yang Menyamar2019/09/292019-09-29 09:37:05
One Piece 952 – Hiyori dan Kawamatsu2019/09/292019-09-29 09:14:59
One Piece 951 – Mengamuk2019/08/032019-08-03 12:18:44
One Piece 950 – Mimpi Para Prajurit2019/07/282019-07-28 10:06:01
One Piece 949 – Mumi2019/07/242019-07-24 15:45:07
Pembahasan One Piece 947: Memori Big Mom Akhirnya Kembali?!2019/07/012019-07-01 11:11:04
One Piece 948 – Kawamatsu the Kappa2019/06/292019-06-29 16:18:27
One Piece 947 – Pertaruhan Queen2019/06/292019-06-29 13:08:56
Pembahasan One Piece 946: Luffy Versus Big Mom (Lagi)!!2019/06/242019-06-24 10:57:06
One Piece 946 – Queen vs O-Lin2019/06/242019-06-24 08:37:56
Boruto 035 – Terserah Padamu Bagian 22019/06/132019-06-13 17:05:13
Boruto 035 – Terserah Padamu2019/06/132019-06-13 16:54:37
Pembahasan One Piece 945: Big Mom Hadir di Tambang Penjara Kaido!2019/06/092019-06-09 09:06:15
One Piece 945 – O-Lin2019/06/082019-06-08 09:25:29
Mangacanblog – Komik Manga Versi Indonesia Online2019/06/052019-06-05 19:16:54
Pembahasan One Piece 944: Duel Zoro Versus Kyoshiro?!2019/06/012019-06-01 11:42:16
One Piece 944 – Partner2019/06/012019-06-01 11:10:40
Pembahasan One Piece 943: Ternyata Ini Asal-Usul Nama Buah SMILE2019/05/252019-05-25 10:48:52
One Piece 943 – SMILE2019/05/252019-05-25 10:28:44
Pembahasan One Piece 942: Pengorbanan Mengharukan Yasu!2019/05/122019-05-12 13:13:35
One Piece 942 – Daimyo Hakumai, Shimotsuki Yasuie2019/05/102019-05-10 14:18:27
Bleach 669 – Blade II2019/04/272019-04-27 18:06:26
Bleach 668 – BIGGER,FASTER,STRONGER2019/04/272019-04-27 18:05:24
Bleach 667 – BIGGER, LOUDER, STRONGER2019/04/272019-04-27 18:04:40
Bleach 666 – Karappo2019/04/272019-04-27 18:03:47
Bleach 665 – The Princess Dissection2019/04/272019-04-27 18:00:57
Bleach 664 – The Gift2019/04/272019-04-27 18:00:04
Bleach 663 – God of Thunder 42019/04/272019-04-27 17:59:40
Bleach 662 – God of Thunder 32019/04/272019-04-27 17:58:58
Bleach 661 – My Last Words2019/04/272019-04-27 17:58:23
Bleach 660 – The Visible Answer2019/04/272019-04-27 17:55:58
Bleach 659 – There Will Be Frost2019/04/272019-04-27 17:55:03
Bleach 658 – Fatal Matters Are Cold2019/04/272019-04-27 17:54:16
Bleach 657 – God of Thunder 22019/04/272019-04-27 17:53:44
Bleach 656 – God of Thunder2019/04/272019-04-27 17:53:21
Bleach 655 – The Miracle2019/04/272019-04-27 17:51:48
Bleach 654 – Deadman Standing2019/04/272019-04-27 17:39:24
Bleach 653 – The Theatre Suicide Scene 72019/04/272019-04-27 17:38:43
Bleach 652 – The Theatre Suicide Scene 62019/04/272019-04-27 17:38:00
Bleach 651 – The Theatre Suicide Scene 52019/04/272019-04-27 17:37:29
Bleach 650 – The Theatre Suicide Scene 42019/04/272019-04-27 17:34:57
Bleach 649 – The Theatre Suicide Scene 32019/04/272019-04-27 17:34:36
Bleach 648 – The Theatre Suicide Scene 22019/04/272019-04-27 17:34:08
Bleach 647 – The Theatre Suicide2019/04/272019-04-27 17:33:54
Bleach 646 – The Second Eye2019/04/272019-04-27 17:32:53
Bleach 645 – Don’t Chase a Shadow2019/04/272019-04-27 17:31:36
Bleach 644 – BABY,HOLD YOUR HAND 72019/04/272019-04-27 17:31:08
Bleach 643 – BABY,HOLD YOUR HAND 62019/04/272019-04-27 17:29:55
Bleach 642 – BABY,HOLD YOUR HAND 52019/04/272019-04-27 17:29:09
Bleach 641 – BABY,HOLD YOUR HAND 42019/04/272019-04-27 17:28:39
Bleach 640 – BABY,HOLD YOUR HAND 32019/04/272019-04-27 15:28:08
Bleach 639 – BABY,HOLD YOUR HAND 22019/04/272019-04-27 15:27:32
Bleach 638 – Seething Malice2019/04/272019-04-27 15:26:51
Bleach 637 – Baby, Hold Your Hand2019/04/272019-04-27 15:25:23
Bleach 636 – Sensitive Monster2019/04/272019-04-27 15:24:37
Bleach 635 – Hooded Enigma2019/04/272019-04-27 15:22:57
Bleach 634 – Friend 42019/04/272019-04-27 15:20:59
Bleach 633 – Friend 32019/04/272019-04-27 15:20:12
Bleach 632 – Friend 22019/04/272019-04-27 15:19:25
Bleach 631 – Friend2019/04/272019-04-27 15:18:25
Bleach 630 – The Twinned Twilight2019/04/272019-04-27 15:15:36
Bleach 629 – Gate of the Sun2019/04/272019-04-27 15:15:15
Bleach 628 – New World Orders2019/04/272019-04-27 15:13:20
Bleach 627 – The Creation2019/04/272019-04-27 15:12:26
Bleach 626 – THE HOLY NEWBORN2019/04/272019-04-27 15:11:54
Bleach 625 – LIVING JAGUAR2019/04/272019-04-27 15:10:40
Bleach 624 – THE FANG2019/04/272019-04-27 15:10:07
Bleach 623 – Against The Judgement2019/04/272019-04-27 15:09:38
Bleach 622 – The Agony2019/04/272019-04-27 15:09:12
Bleach 621 – THE DARK CURTAIN2019/04/272019-04-27 15:08:46
Bleach 620 – Where Do You Stand2019/04/272019-04-27 15:05:04
Bleach 619 – The Betrayer2019/04/272019-04-27 15:04:23
Bleach 618 – The Dark Arm2019/04/272019-04-27 15:03:55
Bleach 617 – Return of the God2019/04/272019-04-27 15:03:26
Bleach 616 – Mimihagi2019/04/272019-04-27 15:02:48
Bleach 615 – All is Lost2019/04/272019-04-27 15:01:04
Bleach 614 – KILL THE KING2019/04/272019-04-27 15:00:55
Bleach 613 – The Ordinary Peace2019/04/272019-04-27 15:00:44
Bleach 612 – DIRTY2019/04/272019-04-27 15:00:33
Bleach 611 – The Soul King Dies2019/04/272019-04-27 14:58:32
Bleach 610 – Mausoleum of Skulls2019/04/272019-04-27 14:56:48
Bleach 609 – “A”2019/04/272019-04-27 14:55:15
Bleach 608 – Darker than Black2019/04/272019-04-27 14:54:17
Bleach 607 – THE MASTER2019/04/272019-04-27 14:53:52
Bleach 606 – Divine Division2019/04/272019-04-27 14:51:24
Bleach 605 – Don’t Call My Name2019/04/272019-04-27 14:45:06
Bleach 604 – REVITALIZE2019/04/272019-04-27 14:44:26
Bleach 603 – What The Hell2019/04/272019-04-27 14:43:32
Bleach 602 – Bane Licking Good2019/04/272019-04-27 14:42:45
Bleach 601 – VERGE ON VERMILLION2019/04/272019-04-27 14:42:14
Bleach 600 – SNIPE2019/04/272019-04-27 12:49:04
Bleach 599 – Too Early To Win, Too Late To Know2019/04/272019-04-27 12:48:36
Bleach 598 – The Shooting Star Project2019/04/272019-04-27 12:47:36
Bleach 597 – Winded by the Shadow2019/04/272019-04-27 12:44:10
Bleach 596 – Rubb-Dolls 32019/04/272019-04-27 12:43:48
Bleach 595 – Rubb-Dolls 22019/04/272019-04-27 12:40:56
Bleach 594 – Rubb-Dolls2019/04/272019-04-27 12:38:37
Bleach 593 – Marching Out The ZOMBIES 42019/04/272019-04-27 12:37:51
Bleach 592 – Marching Out The ZOMBIES 32019/04/272019-04-27 12:35:49
Bleach 591 – Marching Out The ZOMBIES 22019/04/272019-04-27 12:34:41
Bleach 590 – Marching Out the ZOMBIES2019/04/272019-04-27 01:22:05
Bleach 589 – The Shooting Star Project [The Old and New Trust]2019/04/272019-04-27 01:21:49
Bleach 588 – The Headless Star 72019/04/272019-04-27 01:20:52
Bleach 587 – The Headless Star 62019/04/272019-04-27 00:51:52
Bleach 586 – The Headless Star 52019/04/272019-04-27 00:36:22
Bleach 585 – The Headless Star 42019/04/272019-04-27 00:16:56
Bleach 584 – THE HEADLESS STAR 32019/04/272019-04-27 00:16:49
Bleach 583 – The Headless Star 22019/04/272019-04-27 00:16:40
Bleach 582 – The Headless Star2019/04/272019-04-27 00:16:33
Bleach 581 – THE HERO 22019/04/272019-04-27 00:16:28
Bleach 580 – THE LIGHT2019/04/262019-04-26 23:05:15
Bleach 579 – THE UNDEAD 62019/04/262019-04-26 23:04:31
Bleach 578 – THE UNDEAD 52019/04/262019-04-26 22:48:50
Bleach 577 – The Death2019/04/262019-04-26 22:47:09
Bleach 576 – THE KILLERS HIGH 22019/04/262019-04-26 22:45:59
Bleach 575 – THE KILLERS HIGH2019/04/262019-04-26 22:14:49
Bleach 574 – DEATH IN VISION2019/04/262019-04-26 22:14:24
Bleach 573 – I AM THE EDGE2019/04/262019-04-26 22:13:04
Bleach 572 – The Blaster2019/04/262019-04-26 22:12:29
Bleach 571 – a Devilish Perspective2019/04/262019-04-26 22:11:56
Bleach 570 – Closer, Closer2019/04/262019-04-26 22:07:54
Bleach 569 – The White Haze2019/04/262019-04-26 22:06:58
Bleach 568 – Hear – Fear – Here 22019/04/262019-04-26 22:06:34
Bleach 567 – Dance With Snowwhite2019/04/262019-04-26 22:03:56
Bleach 566 – What is Your Fear?2019/04/262019-04-26 22:03:11
Bleach 565 – God Like You2019/04/262019-04-26 21:53:54
Bleach 564 – Red Bristled Kings2019/04/262019-04-26 21:51:46
Bleach 563 – SUPERSTAR NEVER DIE2019/04/262019-04-26 21:50:52
Bleach 562 – THE VILLAIN 22019/04/262019-04-26 21:49:11
Bleach 561 – THE VILLAIN2019/04/262019-04-26 21:26:30
Bleach 560 – Rages at Ringside2019/04/262019-04-26 21:23:18
Bleach 559 – THE NIGHT RIGHT2019/04/262019-04-26 21:22:58
Bleach 558 – Wolfsbane 32019/04/262019-04-26 20:57:43
Bleach 557 – Wolfsbane 22019/04/262019-04-26 20:55:07
Bleach 556 – The Wolfsbane2019/04/262019-04-26 20:35:17
Pembahasan One Piece 941: Seorang Sekutu Topi Jerami Terancam Dieksekusi2019/04/262019-04-26 19:54:12
One Piece 941 – Orang Paling Dicintai di Kota Ebisu2019/04/262019-04-26 15:34:40
Bleach 555 – The Hero2019/04/252019-04-25 23:02:38
Bleach 554 – Desperate Lights2019/04/252019-04-25 22:43:53
Bleach 553 – Frozen Cross2019/04/252019-04-25 22:42:15
Bleach 552 – The Fundamental Virulence2019/04/252019-04-25 22:41:41
Bleach 551 – The Burnt Offerings2019/04/252019-04-25 22:40:45
Bleach 550 – Blazing Bullets2019/04/252019-04-25 22:39:12
Bleach 549 – The Stormbringer2019/04/252019-04-25 21:53:40
Bleach 548 – The Thin Ice2019/04/252019-04-25 21:51:38
Bleach 547 – Peace From Shadows2019/04/252019-04-25 21:12:37
Bleach 546 – The Last 9Days2019/04/252019-04-25 21:12:06
Bleach 545 – Blue Stripes2019/04/252019-04-25 14:58:13
Bleach 544 – Walking With Watchers2019/04/252019-04-25 14:57:24
Bleach 543 – Letters2019/04/252019-04-25 14:56:56
Bleach 542 – The Blade Is Me2019/04/252019-04-25 14:56:25
Bleach 541 – The Blade and Me 22019/04/252019-04-25 14:55:03
Bleach 540 – The Sword Five2019/04/242019-04-24 23:37:00
Bleach 539 – Prob-less, Progress2019/04/242019-04-24 23:13:39
Bleach 538 – Standing on the Edge2019/04/242019-04-24 23:13:03
Bleach 537 – Everything But the Rain op.10 “Prinz Von Licht”2019/04/242019-04-24 23:12:37
Bleach 536 – Everything But the Rain op.9 “June Truth”2019/04/242019-04-24 23:12:06
Bleach 535 – Everything But the Rain op.8 “Defenders”2019/04/242019-04-24 21:50:21
Bleach 534 – Everything But the Rain op.7 “Hole of Reproach”2019/04/242019-04-24 21:48:22
Bleach 533 – Everything But the Rain op.6 “The Gravitation”2019/04/242019-04-24 21:48:06
Bleach 532 – Everything But the Rain op.5 “The White Noise”2019/04/242019-04-24 21:47:28
Bleach 531 – Everything But the Rain op.4 “Dark of the Bleeding Moon”2019/04/242019-04-24 21:47:11
Bleach 530 – Everything But the Rain op.3 “Dark of the Moon”2019/04/242019-04-24 18:02:58
Bleach 529 – Everything But the Rain op.2 “The Judgements”2019/04/242019-04-24 17:44:21
Bleach 528 – Everything But the Rain2019/04/242019-04-24 17:34:08
Bleach 527 – Eliminate From Heaven2019/04/242019-04-24 17:33:27
Bleach 526 – The Battle2019/04/242019-04-24 17:32:47
Bleach 525 – Edges2019/04/242019-04-24 17:26:52
Bleach 524 – The Drop2019/04/242019-04-24 17:26:36
Bleach 523 – Swords of Origin2019/04/242019-04-24 17:26:20
Bleach 522 – Love It2019/04/242019-04-24 17:25:16
Bleach 521 – A Piggy Party2019/04/242019-04-24 17:24:57
Bleach 520 – Killers Not Dead2019/04/242019-04-24 17:20:21
Bleach 519 – Hot,Hot,Heat2019/04/242019-04-24 17:20:04
Bleach 518 – The Shooting Star Project (Zero Mix)2019/04/242019-04-24 17:19:51
Bleach 517 – The Stairway to Heaven2019/04/242019-04-24 17:14:45
Bleach 516 – The Squad Zero2019/04/242019-04-24 17:09:40
Bleach 515 – Relics2019/04/242019-04-24 16:55:32
Bleach 514 – Born in the Dark2019/04/242019-04-24 16:55:19
Bleach 513 – The Dark Moon Stroke2019/04/242019-04-24 16:55:03
Bleach 512 – The Stand Ablaze2019/04/242019-04-24 16:52:41
Bleach 511 – Die Standing2019/04/242019-04-24 16:52:24
Bleach 510 – The Extinction2019/04/242019-04-24 16:50:06
Bleach 509 – Tenchi Kaijin2019/04/242019-04-24 16:49:52
Bleach 508 – Like a Raging Fire2019/04/242019-04-24 15:44:46
Bleach 507 – The Fire 32019/04/242019-04-24 15:44:04
Bleach 506 – The Fire 22019/04/242019-04-24 15:43:34
Bleach 505 – The Fire2019/04/242019-04-24 15:38:51
Bleach 504 – Before The Shadows2019/04/242019-04-24 15:30:43
Bleach 503 – Wrath as Lightning2019/04/242019-04-24 15:26:13
Bleach 502 – Falling Soul2019/04/242019-04-24 15:25:39
Bleach 501 – Here Fear2019/04/242019-04-24 15:24:48
Bleach 500 – Rescuer in The Deep Dark2019/04/242019-04-24 15:22:49
Bleach 499 – Rescuer in the Dark2019/04/242019-04-24 14:01:53
Bleach 498 – The Black Rescuer2019/04/242019-04-24 14:00:53
Bleach 497 – Kill the Shadow 22019/04/242019-04-24 13:59:51
Bleach 496 – Kill the Shadow2019/04/242019-04-24 13:59:26
Bleach 495 – Bleeding2019/04/232019-04-23 14:55:45
Bleach 494 – Bab Penutup part 12019/04/232019-04-23 14:44:44
Bleach 493 – Light of Happiness2019/04/232019-04-23 14:32:03
Bleach 492 – Balancer Justice2019/04/232019-04-23 14:15:04
Bleach 491 – Toten Engel2019/04/232019-04-23 14:10:28
Bleach 490 – March of The Starcross 22019/04/232019-04-23 14:06:56
Bleach 489 – March of The Starcross2019/04/232019-04-23 13:54:25
Bleach 488 – Bond Behind Blast2019/04/232019-04-23 13:51:32
Bleach 487 – Bernapas Tapi Buta2019/04/232019-04-23 13:49:10
Bleach 486 – The Crimson Cremation2019/04/232019-04-23 13:46:40
Bleach 485 – Foundation Stones2019/04/222019-04-22 10:37:20
Bleach 484 – Buckbeard2019/04/222019-04-22 06:53:40
Bleach 483 – KriegsErklarung2019/04/222019-04-22 06:48:39
Bleach 482 – Bad Recognition2019/04/222019-04-22 00:10:30
Bleach 481 – The Tearing2019/04/222019-04-22 00:03:57
Bleach 480 – The Thousand Year2019/04/212019-04-21 03:23:05
Bleach 479 – Goodbye2019/04/212019-04-21 03:23:01
Bleach 478 – Lost 32019/04/212019-04-21 03:13:25
Bleach 477 – Lost 22019/04/212019-04-21 02:04:08
Bleach 476 – Lost2019/04/212019-04-21 01:38:30
Bleach 475 – Shades of the Bond2019/04/202019-04-20 20:29:40
Bleach 474 – Believe2019/04/202019-04-20 19:38:04
Bleach 473 – Enemies in The Dark2019/04/202019-04-20 19:35:32
Bleach 472 – Razoredge Requiem2019/04/202019-04-20 19:32:20
Bleach 471 – Pray for Predators 22019/04/202019-04-20 19:29:15
Bleach 470 – Pray for Predators2019/04/202019-04-20 19:27:10
Bleach 469 – Rag Lag Rumble2019/04/202019-04-20 19:25:28
Bleach 468 – Raid as Blade2019/04/202019-04-20 19:22:13
Bleach 467 – Luck Men2019/04/202019-04-20 19:18:38
Bleach 466 – Screaming Invader2019/04/202019-04-20 19:15:45
Pembahasan One Piece 940: Big Mom Semakin Dekat ke Penjara Luffy2019/04/202019-04-20 17:32:59
One Piece 940 – Seruan Pemberontakan2019/04/192019-04-19 16:39:21
Bleach 465 – Bad Blood2019/04/192019-04-19 16:27:27
Bleach 464 – Quiet Chamber2019/04/192019-04-19 16:23:58
Bleach 463 – Extreme Sad2019/04/192019-04-19 16:23:10
Bleach 462 – Why Me Sad2019/04/192019-04-19 16:19:23
Bleach 461 – Come Around Our Turn2019/04/192019-04-19 16:14:35
Bleach 460 – Deathberry Return 22019/04/192019-04-19 16:10:47
Bleach 459 – Death and Strawberry 22019/04/192019-04-19 13:26:37
Bleach 458 – End of All Bond2019/04/192019-04-19 13:21:57
Bleach 457 – End of The Bond 32019/04/192019-04-19 13:20:09
Bleach 456 – End of The Bond 22019/04/192019-04-19 13:18:16
Bleach 455 – End of Bond 12019/04/192019-04-19 11:28:52
Bleach 454 – Sheathebreaker2019/04/192019-04-19 11:28:32
Bleach 453 – Mute Your Breath2019/04/192019-04-19 11:28:00
Bleach 452 – Erosion2019/04/192019-04-19 11:24:57
Bleach 451 – Welcome to Our Execution 42019/04/192019-04-19 11:24:13
Bleach 450 – Blind Solitude2019/04/192019-04-19 11:17:54
Bleach 449 – Not be a Drug2019/04/192019-04-19 11:17:31
Bleach 448 – Loading to Lie2019/04/192019-04-19 11:15:46
Bleach 447 – Load2019/04/192019-04-19 11:12:08
Bleach 446 – Dark Beat 22019/04/192019-04-19 11:11:20
Bleach 445 – Dark Beat2019/04/192019-04-19 11:09:00
Bleach 444 – The Rising2019/04/192019-04-19 11:07:15
Bleach 443 – Sepatu Kotor Berbahaya2019/04/192019-04-19 11:05:39
Bleach 442 – Battlefield2019/04/192019-04-19 11:02:13
Bleach 441 – Spotlight Broken2019/04/192019-04-19 10:59:09
Bleach 440 – Mute Friends2019/04/192019-04-19 10:16:29
Bleach 439 – Keen Marker2019/04/192019-04-19 10:13:44
Bleach 438 – Knuckle Down2019/04/192019-04-19 10:13:04
Bleach 437 – Swastika Break2019/04/192019-04-19 10:09:12
Bleach 436 – The Time Discipline2019/04/192019-04-19 10:06:17
Bleach 435 – Kepanikan dalam Rumah Boneka2019/04/192019-04-19 10:02:26
Bleach 434 – Berry in The Box2019/04/192019-04-19 09:55:33
Bleach 433 – The Six Fullbringer2019/04/192019-04-19 09:31:13
Bleach 432 – The Soul Pantheism2019/04/182019-04-18 16:40:12
Bleach 431 – Welcome to our EXECUTION 32019/04/182019-04-18 16:40:11
Bleach 430 – Welcome to our EXECUTION 22019/04/182019-04-18 16:28:58
Bleach 429 – Welcome to our EXECUTION2019/04/182019-04-18 16:28:41
Bleach 428 – The Known2019/04/182019-04-18 16:28:04
Bleach 427 – A Delicious Dissonance2019/04/182019-04-18 16:27:07
Bleach 426 – The Starter 22019/04/182019-04-18 16:26:44
Bleach 425 – A Day Without Melodies2019/04/182019-04-18 16:10:30
Bleach 424 – The Lost Agent2019/04/182019-04-18 16:08:59
Bleach 423 – Bleach My Soul2019/04/182019-04-18 16:05:52
Bleach 422 – The silent victory2019/04/182019-04-18 16:05:23
Bleach 421 – DECIDE 232019/04/182019-04-18 15:48:02
Bleach 420 – DECIDE 222019/04/182019-04-18 15:34:14
Bleach 419 – DECIDE 21 (Transcendent God Rock)2019/04/182019-04-18 15:32:28
Bleach 418 – DECIDE 202019/04/182019-04-18 15:30:46
Bleach 417 – DECIDE 192019/04/182019-04-18 15:29:04
Bleach 416 – DECIDE 18 (THE END)2019/04/182019-04-18 15:27:59
Bleach 415 – DECIDE 172019/04/182019-04-18 15:26:43
Bleach 414 – DECIDE 162019/04/182019-04-18 15:25:44
Bleach 413 – Decide 152019/04/182019-04-18 14:36:39
Bleach 412 – Decide 142019/04/182019-04-18 14:33:56
Bleach 411 – Decide 132019/04/182019-04-18 14:26:56
Boruto 034 – Latihan2019/04/172019-04-17 09:25:17
Bleach 410 – DECIDE 122019/04/132019-04-13 19:57:02
Bleach 408 – DECIDE 102019/04/132019-04-13 19:42:08
Bleach 409 – DECIDE 112019/04/132019-04-13 10:31:59
Bleach 407 – DECIDE 92019/04/132019-04-13 10:27:37
Bleach 406 – DECIDE 8 end of the Chrysalis Age2019/04/132019-04-13 10:26:41
Bleach 405 – DECIDE 72019/04/132019-04-13 09:29:23
Bleach 404 – DECIDE 62019/04/132019-04-13 09:28:42
Bleach 403 – DECIDE 52019/04/132019-04-13 09:28:14
Bleach 402 – DECIDE 42019/04/132019-04-13 09:00:15
Bleach 401 – DECIDE 32019/04/132019-04-13 08:50:19
Bleach 400 – DECIDE 22019/04/132019-04-13 07:13:02
Bleach 399 – DECIDE2019/04/132019-04-13 07:11:57
Bleach 398 – BACK FROM BLIND2019/04/132019-04-13 07:10:51
Bleach 397 – Edge of the Silence2019/04/132019-04-13 07:10:09
Bleach 396 – THE BITE2019/04/132019-04-13 07:09:33
Bleach 395 – The Burnout Inferno 32019/04/122019-04-12 22:49:11
Bleach 394 – The Burnout Inferno 22019/04/122019-04-12 22:46:15
Bleach 393 – The Burnout Inferno2019/04/122019-04-12 22:44:55
Bleach 392 – The Breaking Glaciers2019/04/122019-04-12 22:34:02
Bleach 391 – The Blazing Glaciers2019/04/122019-04-12 22:12:53
One Piece 939 – Kakek Hyo Tahu Caranya2019/04/122019-04-12 21:27:59
Pembahasan One Piece 939: Kakek Hyo Bisa Busoshoku Haki Level Tinggi?!2019/04/122019-04-12 07:32:37
Boruto 033 – Melewati Batas2019/04/102019-04-10 09:25:13
Bleach 390 – BEYOND THE DEATH UNDERSTANDING2019/04/092019-04-09 16:19:24
Bleach 389 – WINGED EAGLES 22019/04/092019-04-09 16:18:54
Bleach 388: Eagle Without Wings2019/04/092019-04-09 16:10:17
Bleach 387 – Ignited2019/04/092019-04-09 16:09:49
Bleach 386 – Bells Are Blue2019/04/092019-04-09 16:08:38
Bleach 385 – Vice It2019/04/092019-04-09 15:28:01
Bleach 384 – Can’t Fear Your Own Sword2019/04/092019-04-09 15:27:36
Bleach 383 – TOO EARLY TO TRUST2019/04/092019-04-09 15:19:07
Bleach 382 – The United Front 2 (Discordeque Mix)2019/04/092019-04-09 15:17:32
Bleach 381 – Words Just Don’t Like You2019/04/092019-04-09 15:16:56
Bleach 380 – Devil, Devil, Devil, Devil2019/04/092019-04-09 14:52:59
Bleach 379 – Falta de Armonia2019/04/092019-04-09 14:51:39
Bleach 378 – Eyes of the Victor2019/04/092019-04-09 14:45:53
Bleach 377 – Shout at the Dark2019/04/092019-04-09 14:43:54
Bleach 376 – EXecution, EXtinction 22019/04/092019-04-09 14:43:25
Bleach 375 – EXecution, EXtinction2019/04/092019-04-09 14:40:58
Bleach 374 – Gray Wolf, Red Blood, Black Cloth, White Bone2019/04/092019-04-09 12:16:37
Bleach 373 – Wolves Ain’t Howl Alone2019/04/092019-04-09 12:14:06
Bleach 372 – The Metal Cudgel Flinger2019/04/092019-04-09 12:13:03
Bleach 371 – Kingdom of Hollows2019/04/092019-04-09 12:12:32
Bleach 370 – Discussing Life from God’s Perspective2019/04/092019-04-09 11:51:46
Bleach 369 – Spit on Your Own God2019/04/092019-04-09 11:50:47
Bleach 368 – The Fearless Child2019/04/092019-04-09 11:35:49
Bleach 367 – YOUR ENEMY IS MY ENEMY2019/04/082019-04-08 18:27:12
Bleach 366 – The Revenger’s High2019/04/082019-04-08 18:23:12
Bleach 365 – Whose Side Are We On2019/04/082019-04-08 17:30:05
Bleach 364 – Grinning Revengers2019/04/082019-04-08 17:29:31
Bleach 363 – Superchunky from Hell2019/04/082019-04-08 17:28:55
Bleach 362 – Howling Wolves2019/04/082019-04-08 17:28:28
Bleach 361 – I Hate Loneliness, But It Loves Me2019/04/082019-04-08 17:16:10
Bleach 360 – Shock of the Queen2019/04/082019-04-08 15:51:37
Bleach 359 – The Frozen Obelisk2019/04/082019-04-08 15:51:17
Bleach 358 – King of the Clouds2019/04/082019-04-08 15:50:50
Bleach 357 – The Colossus of Fear2019/04/082019-04-08 15:49:39
Bleach 356 – Tyrant of Skulls2019/04/082019-04-08 15:49:13
Bleach 355 – Azul-Blood Splash2019/04/082019-04-08 15:40:59
Bleach 354 – The Heart2019/04/082019-04-08 15:40:27
Bleach 353 – The Ash2019/04/082019-04-08 15:40:16
Bleach 352 – The Lust 62019/04/082019-04-08 15:39:25
Bleach 351 – The Lust 52019/04/082019-04-08 15:37:06
Bleach 350 – The Lust 42019/04/082019-04-08 15:34:23
Bleach 349 – The Lust 32019/04/082019-04-08 15:34:04
Bleach 348 – The Lust 22019/04/082019-04-08 15:33:48
Bleach 347 – The Lust2019/04/082019-04-08 15:32:57
Bleach 346 – The Wrath2019/04/082019-04-08 15:30:13
Bleach 345 – The Sloth2019/04/082019-04-08 15:29:03
Bleach 344 – The Pride2019/04/082019-04-08 15:28:47
Bleach 343 – The Gluttony2019/04/082019-04-08 15:28:29
Bleach 342 – The Greed2019/04/082019-04-08 13:44:34
Bleach 341 – The Envy2019/04/082019-04-08 13:20:51
Bleach 340 – The Antagonizer2019/04/082019-04-08 13:19:03
Bleach 339 – The Deathbringer Numbers2019/04/082019-04-08 13:18:30
Bleach 338 – Fall Into My Inferno2019/04/082019-04-08 13:12:56
Bleach 337 – Hall In Your Inferno2019/04/082019-04-08 13:12:27
Bleach 336 – El Verdugo2019/04/082019-04-08 13:11:21
Bleach 335 – Chimera Chord2019/04/082019-04-08 13:09:24
Bleach 334 – Dregs of Hypnosis2019/04/082019-04-08 13:08:21
Bleach 333 – Ash and Salamander2019/04/082019-04-08 13:07:32
Bleach 332 – Fang & Sting2019/04/082019-04-08 13:05:52
Bleach 331 – Don’t Believe the Hide2019/04/082019-04-08 13:04:44
Bleach 330 – Crossing Swords2019/04/082019-04-08 13:03:19
Bleach 329 – Raging Rampage2019/04/082019-04-08 13:03:06
Bleach 328 – The Knuckle Debate2019/04/082019-04-08 13:02:28
Bleach 327 – Knock Down Monsters2019/04/082019-04-08 13:01:56
Bleach 326 – Knockdown Monster2019/04/082019-04-08 12:58:24
Bleach 325 – Fear for the Fight2019/04/082019-04-08 11:00:04
Bleach 324 – The Claws2019/04/082019-04-08 10:58:30
Bleach 323 – Gloomy, Ghastly and Full of Despair2019/04/082019-04-08 10:56:45
Bleach 322 – Oath Under The Rose2019/04/082019-04-08 10:56:12
Bleach 321 – Black Briers and Brambles2019/04/082019-04-08 10:55:35
Bleach 320 – Beauty is so Solitary2019/04/072019-04-07 17:25:44
Bleach 319 – Ants and Dragons2019/04/072019-04-07 17:24:54
Bleach 318 – Five Towers2019/04/072019-04-07 17:19:32
Bleach 317 – Six Heart Beat as One2019/04/072019-04-07 17:15:53
Bleach 316 – Swang the Edge Down2019/04/072019-04-07 17:09:36
Pembahasan One Piece 938: Zoro Pingsan?! Ada Apa dengan Zoro?2019/04/072019-04-07 13:31:50
One Piece 938.5 – April Mop2019/04/062019-04-06 13:35:53
Pembahasan One Piece 937: Aksi Keren Zoro Menyelamatkan O-Toko2019/04/012019-04-01 13:15:43
One Piece 938 – Rahasia Dia2019/03/302019-03-30 14:50:53
One Piece 937 – Gyukimaru Diatas Jembatan Oihagi2019/03/222019-03-22 21:34:48
One Piece 936 – Turnamen Sumo Terhebat2019/03/202019-03-20 03:10:24
One Piece 747 – Eksekutif Tertinggi, Pica2019/03/192019-03-19 23:19:16
One Piece 746 – Para Bintang2019/03/192019-03-19 23:18:10
One Piece 745 – Sangkar Burung2019/03/192019-03-19 23:14:24
One Piece 744 – Jenderal Pasukan Revolusioner2019/03/192019-03-19 23:00:41
One Piece 742 – Aku Akan Selalu Didekatmu2019/03/192019-03-19 22:34:14
One Piece 743 – Guncangan Hebat di Dressrosa2019/03/192019-03-19 21:24:26
One Piece 741 – Usoland Sang Pembohong2019/03/192019-03-19 20:57:55
One Piece 740 – Tolong2019/03/192019-03-19 20:35:12
One Piece 739 – Kapten2019/03/192019-03-19 17:42:04
One Piece 738 – Pasukan Trevor2019/03/192019-03-19 17:29:57
One Piece 736 – Kepala Eksekutif Diamante2019/03/192019-03-19 17:28:39
One Piece 735 – Tujuan Fujitora2019/03/192019-03-19 17:27:54
One Piece 734 – Angin Puyuh2019/03/192019-03-19 17:26:08
One Piece 733 – Yang Diinginkan Mr. Soldier2019/03/192019-03-19 17:25:21
One Piece 732 – Dunia Bawah2019/03/192019-03-19 17:23:44
One Piece 731 – Operasi SOP Dressrosa2019/03/192019-03-19 17:22:58
One Piece 730 – 3 Kartu2019/03/192019-03-19 17:21:11
One Piece 729 – Shichibukai Doflamingo vs Shichibukai Law2019/03/192019-03-19 17:10:19
One Piece 728 – Tragedi2019/03/192019-03-19 17:07:57
One Piece 727 – Serbuan Para Pahlawan2019/03/192019-03-19 17:06:20
One Piece 726 – Keluarga Riku2019/03/192019-03-19 17:04:13
One Piece 725 – Wanita Tak Terkalahkan2019/03/192019-03-19 09:04:06
One Piece 724 – Rencana Law2019/03/192019-03-19 08:27:14
One Piece 723 – Perubahan Rencana2019/03/192019-03-19 08:26:05
One Piece 722 – Keturunan Kerajaan2019/03/192019-03-19 07:45:40
One Piece 721 – Rebecca Mr. Soldier2019/03/192019-03-19 07:44:05
One Piece 720 – Gladiator yang Dihukum2019/03/192019-03-19 07:24:16
One Piece 719 – Terbukalah Chinjao2019/03/192019-03-19 07:22:17
One Piece 721 – Rebecca dan Mr. Soldier2019/03/192019-03-19 07:03:22
One Piece 718 – Riku Royal Army di Padang Bunga2019/03/192019-03-19 07:03:01
One Piece 717 – Yang Dressrosa Lupakan2019/03/192019-03-19 07:02:06
One Piece 716 – Don Qinjiao2019/03/192019-03-19 06:58:21
One Piece 715 – Pertarungan Sengit di Blok C2019/03/182019-03-18 20:09:43
One Piece 714 – Lucy & Ucy2019/03/182019-03-18 19:31:54
One Piece 713 – Usoland2019/03/182019-03-18 19:30:00
One Piece 712 – Violet2019/03/182019-03-18 19:28:58
One Piece 711 – Petualangan di Negeri Kurcaci2019/03/182019-03-18 19:27:12
One Piece 710 – Menuju Green Bit2019/03/182019-03-18 19:22:21
One Piece 709 – King Punch2019/03/182019-03-18 18:10:57
One Piece 708 – Colloseum Para Pencuri2019/03/182019-03-18 18:05:54
One Piece 707 – Blok B2019/03/182019-03-18 18:03:05
One Piece 706 – Aku Tidak Akan Mentertawakanmu2019/03/182019-03-18 17:28:11
One Piece 705 – Maynard Si Pemburu2019/03/182019-03-18 17:26:56
One Piece 704 – Patung Kyros2019/03/182019-03-18 17:11:29
One Piece 703 – Ruang Tunggu2019/03/182019-03-18 17:09:00
One Piece 702 – Colloseum Corrida2019/03/182019-03-18 17:07:32
One Piece 701 – Petualangan Di Negeri Cinta2019/03/182019-03-18 17:06:29
One Piece 700 – Pergerakannya2019/03/182019-03-18 17:05:27
One Piece 699 – Surat Kabar Pagi2019/03/182019-03-18 17:04:44
One Piece 698 – Kemunculan Dolamingo2019/03/182019-03-18 17:03:55
One Piece 696 – Mencocokkan Tujuan2019/03/182019-03-18 17:01:31
One Piece 697 – Transaksi2019/03/182019-03-18 17:00:10
One Piece 695 – Serahkan Padaku2019/03/182019-03-18 16:56:13
One Piece 694 – Orang Yang Sangat Berbahaya2019/03/182019-03-18 16:50:33
One Piece 693 – Matilah Untukku2019/03/182019-03-18 16:04:19
One Piece 692 – Pembunuhan Dari Dressrosa2019/03/182019-03-18 15:58:58
One Piece 691 – Raja Negeri Kematian2019/03/182019-03-18 15:53:23
One Piece 690 – SAD2019/03/182019-03-18 13:35:46
One Piece 689 – Sebuah Pulau Yang Tak Tampak2019/03/182019-03-18 13:28:08
One Piece 688 – Mocha2019/03/182019-03-18 13:24:20
One Piece 687 – Binatang Buas2019/03/182019-03-18 13:21:43
One Piece 686 – Ruangan Biscuit Wanita2019/03/182019-03-18 13:02:32
One Piece 685 – Momonosuke, Itulah Namaku2019/03/182019-03-18 12:59:01
One Piece 684 – Hentikan, Vegapunk2019/03/182019-03-18 12:57:06
One Piece 683 – Gadis Seperti Es2019/03/182019-03-18 12:52:15
One Piece 682 – Mastermind2019/03/182019-03-18 12:47:37
One Piece 681 – Luffy vs Master2019/03/182019-03-18 12:36:04
One Piece 680 – Kapten Angkatan Laut G-52019/03/182019-03-18 12:25:14
One Piece 679 – Tekad G-52019/03/182019-03-18 09:10:39
One Piece 678 – Di Dalam Lab, Ruang Masuk Gedung2019/03/182019-03-18 09:05:57
One Piece 677 – Counter Hazard2019/03/182019-03-18 09:00:34
One Piece 676 – Senjata Pemusnah Massal2019/03/182019-03-18 05:26:40
One Piece 675 – Namanya Adalah Shinokuni2019/03/182019-03-18 05:13:22
One Piece 674 – Para Saksi2019/03/182019-03-18 05:09:02
One Piece 673 – Vergo dan Joker2019/03/182019-03-18 05:07:43
One Piece 672 – Namaku Adalah Kinemon2019/03/182019-03-18 05:06:25
One Piece 671 – Buah Gas-gas2019/03/182019-03-18 05:04:22
One Piece 670 – Badai Salju2019/03/182019-03-18 05:01:22
One Piece 669 – Memulai Strategi2019/03/182019-03-18 04:59:21
One Piece 668 – Sekutu Bajak Laut2019/03/182019-03-18 04:54:21
One Piece 667 – Cool Fight2019/03/182019-03-18 04:44:26
One Piece 666 – Yeti Cool Bersaudara2019/03/182019-03-18 04:42:42
One Piece 665 – Permen2019/03/182019-03-18 04:38:30
One Piece 664 – Master Caesar Clown2019/03/182019-03-18 04:37:11
One Piece 663 – CC2019/03/182019-03-18 04:35:45
One Piece 662 – Law vs Smoker2019/03/182019-03-18 04:33:52
One Piece 661 – Lautan Penjahat2019/03/182019-03-18 04:33:02
One Piece 660 – Royal Shichibukai Trafalgar Law2019/03/182019-03-18 04:31:51
One Piece 659 – Bagian Tubuh2019/03/182019-03-18 04:30:29
One Piece 658 – Ruang Biskuit2019/03/182019-03-18 04:27:22
One Piece 656 – Petualangan di Pulau Api2019/03/182019-03-18 04:17:00
One Piece 657 – Potongan Kepala2019/03/182019-03-18 04:16:59
One Piece 655 – Punk Hazard2019/03/182019-03-18 04:14:06
One Piece 654 – Gam (Shogun)2019/03/182019-03-18 04:04:50
One Piece 653 – Topi Pahlawan2019/03/182019-03-18 03:55:40
One Piece 652 – Firasat Buruk2019/03/172019-03-17 20:17:26
One Piece 651 – Suara dari Dunia Baru2019/03/172019-03-17 20:10:29
One Piece 650 – Suara dari Dunia Baru2019/03/172019-03-17 20:00:27
One Piece 650 – Dua Perubahan yang Perlu Kau Ketahui2019/03/172019-03-17 19:59:50
One Piece 649 – Tarian Para Ikan2019/03/172019-03-17 19:13:19
One Piece 648 – Jalan Menuju Matahari2019/03/172019-03-17 19:08:08
One Piece 647 – Hentikan Noah2019/03/172019-03-17 19:06:42
One Piece 646 – Katak2019/03/172019-03-17 18:57:11
One Piece 645 – Kematian Juga Adalah Balas Dendam2019/03/172019-03-17 18:55:01
One Piece 644 – Ke Nol2019/03/172019-03-17 18:49:48
One Piece 643 – Phantom2019/03/172019-03-17 18:43:40
One Piece 642 – Menghancurkan Harga Diri2019/03/172019-03-17 18:40:13
One Piece 641 – Kenapa Kau Ini2019/03/172019-03-17 18:37:40
One Piece 640 – Kebangkitan Pulau Manusia Ikan2019/03/172019-03-17 18:35:22
One Piece 639 – Lindungi Segalanya2019/03/172019-03-17 18:25:57
One Piece 638 – Nigehoshi2019/03/172019-03-17 18:24:05
One Piece 637 – Perahu Purba2019/03/172019-03-17 18:21:43
One Piece 636 – Jendral dari Masa Depan2019/03/172019-03-17 18:20:21
One Piece 635 – Aneh Sekali Aku Bisa Terbang2019/03/172019-03-17 18:19:27
One Piece 634 – 100.000 vs 102019/03/172019-03-17 18:17:28
One Piece 633 – Kawan atau Lawan2019/03/172019-03-17 17:58:12
One Piece 632 – Sudah Kuduga2019/03/172019-03-17 17:57:00
One Piece 631 – Alun-alun Gyoncorde2019/03/172019-03-17 17:55:46
One Piece 630 – Pukulan2019/03/172019-03-17 17:53:39
One Piece 629 – Mantan Shichibukai2019/03/172019-03-17 17:47:50
One Piece 628 – Pembersihan2019/03/172019-03-17 17:33:41
One Piece 627 – Berhutang Budi2019/03/172019-03-17 17:32:46
One Piece 626 – Persaudaraan 3 Anak Neptune2019/03/172019-03-17 17:26:48
One Piece 625 – Keinginan yang Tak Tersampaikan2019/03/172019-03-17 17:22:47
One Piece 624 – Ratu Otohime2019/03/172019-03-17 17:21:19
One Piece 623 – Fishman Tiger2019/03/172019-03-17 17:00:51
One Piece 622 – Bajak Laut Matahari2019/03/172019-03-17 16:58:25
One Piece 621 – Otohime dan Tiger2019/03/172019-03-17 16:57:10
One Piece 620 – Yang Merindukan Taman2019/03/172019-03-17 16:54:12
One Piece 619 – Hutan Laut2019/03/172019-03-17 16:49:39
One Piece 618 – Proposal2019/03/172019-03-17 16:49:01
One Piece 617 – Kejadian yang Mengejutkan di Coral Hill2019/03/172019-03-17 16:34:06
One Piece 616 – Perayaan Pembalasan Dendam2019/03/172019-03-17 16:10:36
One Piece 615 – Kutukan Mato-Mato2019/03/172019-03-17 16:05:53
One Piece 614 – Yang Sudah Terjadi, Terjadilah2019/03/172019-03-17 16:04:26
One Piece 613 – Putri Duyung Menara Koukaku2019/03/172019-03-17 15:54:33
One Piece 612 – Membawa Hiu yang Diselamatkan2019/03/172019-03-17 15:24:15
One Piece 611 – Hodi Jones2019/03/172019-03-17 15:23:46
One Piece 610 – Sang Peramal Madam Shirley2019/03/172019-03-17 15:20:59
One Piece 609 – Petualangan Di Pulau Manusia Ikan2019/03/162019-03-16 23:10:09
One Piece 608 – Surga Di Bawah Laut2019/03/162019-03-16 22:02:33
One Piece 607 – 10.000 Meter Di bawah Laut2019/03/162019-03-16 21:48:32
One Piece 606 – Petualangan di Laut Dalam2019/03/162019-03-16 21:41:55
One Piece 605 – Kraken dan Bajak Laut2019/03/162019-03-16 21:37:10
One Piece 604 – Menuju Laut Dalam2019/03/162019-03-16 21:34:32
One Piece 603 – Jaga Ini Dalam Hati Kalian2019/03/162019-03-16 21:31:35
One Piece 602 – Arahkan Kemudi2019/03/162019-03-16 21:12:27
One Piece 601 – Fajar Cerah Untuk Dunia Baru2019/03/162019-03-16 21:04:47
One Piece 599 – 9 Bajak Laut2019/03/162019-03-16 20:57:50
One Piece 600 – Pulau Permulaan Kembali2019/03/162019-03-16 20:57:48
One Piece 598 – 2 Tahun Kemudian2019/03/162019-03-16 20:50:54
One Piece 597 – 3D2Y2019/03/162019-03-16 14:17:49
One Piece 596 – Spektrum2019/03/162019-03-16 14:13:18
One Piece 595 – Sanji2019/03/162019-03-16 14:09:13
One Piece 585 – 5942019/03/162019-03-16 14:08:04
One Piece 574 – 5842019/03/162019-03-16 14:02:29
One Piece 563 – 5732019/03/162019-03-16 14:01:02
One Piece 551 – 5622019/03/162019-03-16 14:00:58
One Piece 542 – 5502019/03/162019-03-16 13:55:48
One Piece 533 – 5412019/03/162019-03-16 13:54:44
One Piece 523 – 5322019/03/162019-03-16 13:54:11
One Piece 513- 5222019/03/162019-03-16 13:46:06
One Piece 503 – 5122019/03/162019-03-16 13:43:33
One Piece 492 – 5022019/03/162019-03-16 13:42:22
One Piece 482 – 4912019/03/162019-03-16 13:40:59
One Piece 471 – 4812019/03/162019-03-16 13:39:03
One Piece 460 – 4702019/03/162019-03-16 13:34:17
One Piece 450 – 4592019/03/162019-03-16 13:33:43
One Piece 441 – 4492019/03/162019-03-16 13:29:30
One Piece 431 – 4402019/03/162019-03-16 13:27:38
One Piece 431 – 4402019/03/162019-03-16 11:18:10
One Piece 420 – 4302019/03/162019-03-16 11:15:35
One Piece 400 – 4092019/03/162019-03-16 11:11:31
One Piece 410 – 4192019/03/162019-03-16 11:11:30
One Piece 389 – 3992019/03/162019-03-16 09:42:12
One Piece 378 – 3882019/03/162019-03-16 09:34:44
Pembahasan One Piece 936: Haoshoku Haki Luffy Dilepas!!!2019/03/162019-03-16 07:47:36
One Piece 358 – 3672019/03/162019-03-16 06:25:59
One Piece 368 – 3772019/03/162019-03-16 06:25:13
One Piece 337 – 3462019/03/162019-03-16 06:01:13
One Piece 347 – 3572019/03/162019-03-16 06:00:44
One Piece 328 – 3362019/03/162019-03-16 06:00:38
One Piece 317 – 3272019/03/152019-03-15 19:58:23
One Piece 306 – 3162019/03/152019-03-15 19:55:33
One Piece 296 – 3052019/03/152019-03-15 19:41:22
One Piece 286 – 2952019/03/152019-03-15 15:10:13
One Piece 276 – 2852019/03/152019-03-15 14:56:51
One Piece 265 – 2752019/03/152019-03-15 14:37:16
One Piece 265 – 2752019/03/152019-03-15 14:15:09
One Piece 256 – 2642019/03/152019-03-15 14:11:20
One Piece 247 – 2552019/03/152019-03-15 13:46:01
One Piece 237 – 2462019/03/152019-03-15 13:21:31
One Piece 227 – 2362019/03/152019-03-15 13:17:13
One Piece 217 – 2262019/03/152019-03-15 13:14:15
One Piece 206 – 2162019/03/152019-03-15 13:05:11
One Piece 196 – 2052019/03/152019-03-15 13:04:15
One Piece 187 – 1952019/03/152019-03-15 11:44:07
One Piece 177 – 1862019/03/152019-03-15 11:41:56
One Piece 167 – 1762019/03/152019-03-15 11:40:21
One Piece 156 – 1662019/03/152019-03-15 11:39:17
One Piece 146 -1552019/03/152019-03-15 11:37:41
One Piece 137 – 1452019/03/142019-03-14 21:08:22
One Piece 127 – 1362019/03/142019-03-14 21:04:26
One Piece 118 – 1262019/03/142019-03-14 21:02:40
One Piece 109 – 1172019/03/142019-03-14 21:00:20
One Piece 100 – 1082019/03/142019-03-14 17:45:37
One Piece 091 – 992019/03/142019-03-14 17:25:19
One Piece 082 – 902019/03/142019-03-14 17:22:18
One Piece 072 – 812019/03/142019-03-14 17:18:41
One Piece 063 – 712019/03/142019-03-14 17:15:25
One Piece 054 – 622019/03/142019-03-14 16:59:31
One Piece 053 – Tiny Fish no. 12019/03/142019-03-14 16:59:08
One Piece 052 – Sumpah2019/03/142019-03-14 16:45:53
One Piece 051 – Roronoa Zoro Jatuh ke Laut2019/03/142019-03-14 16:43:51
One Piece 050 – Takdirku2019/03/142019-03-14 16:42:11
One Piece 049 – Badai2019/03/142019-03-14 16:40:36
One Piece 048 – Jangan Pergi ke Grand Line2019/03/142019-03-14 16:38:30
One Piece 047 – Don Krieg, Bajak Laut Besar2019/03/142019-03-14 16:37:27
One Piece 046 – Tamu Tak Diundang2019/03/142019-03-14 16:36:30
One Piece 045 – Sebelum Badai2019/03/142019-03-14 16:35:27
One Piece 044 – Tiga Koki2019/03/142019-03-14 16:34:10
One Piece 043 – Sanji2019/03/142019-03-14 15:30:28
One Piece 042 – Yosaku dan Joni2019/03/142019-03-14 15:28:21
One Piece 041 – Menuju Lautan2019/03/142019-03-14 15:25:48
One Piece 040 – Bajak Laut Usopp2019/03/142019-03-14 15:19:55
One Piece 039 – Bel Berdentang2019/03/142019-03-14 15:00:04
One Piece 038 – Bajak Laut2019/03/142019-03-14 14:56:17
One Piece 037 – Kuro Bajak Laut 100 Trik2019/03/142019-03-14 14:53:43
One Piece 036 – Pengejaran2019/03/142019-03-14 14:47:07
One Piece 035 – Neo Hill2019/03/142019-03-14 12:34:51
One Piece 034 – Si Pelayan Kurohadol2019/03/142019-03-14 12:34:10
One Piece 033 – Manusia Tanpa Suara2019/03/142019-03-14 12:33:22
One Piece 032 – Gawat2019/03/142019-03-14 12:32:41
One Piece 031 – Kebenaran2019/03/142019-03-14 12:31:53
One Piece 030 – Hebat2019/03/142019-03-14 12:21:09
One Piece 029 – Lereng2019/03/142019-03-14 12:20:25
One Piece 028 – Malam Bulan Sabit2019/03/142019-03-14 12:19:14
One Piece 027 – Penentuan2019/03/142019-03-14 12:16:50
One Piece 026 – Rencana Kapten Kuro2019/03/142019-03-14 12:15:29
One Piece 025 – 800 Kebohongan2019/03/142019-03-14 12:10:10
One Piece 024 – Sesuatu yang Tak Dapat Kau Sangkal2019/03/142019-03-14 12:04:18
One Piece 023 – Munculnya Kapten Usopp2019/03/142019-03-14 11:53:04
One Piece 022 – Kau Juga Hewan Langka & Mahal2019/03/132019-03-13 21:17:07
One Piece 021 – Desa2019/03/132019-03-13 21:16:12
One Piece 020 – Filosofi Pencuri2019/03/132019-03-13 20:18:34
One Piece 935 – Queen2019/03/082019-03-08 19:11:02
Eden’s Zero Manga2019/03/082019-03-08 04:43:20
Pembahasan One Piece 935: Luffy Bakal Dieksekusi Queen?!2019/03/072019-03-07 07:38:51
One Piece 019 – Buah Setan2019/03/022019-03-02 20:39:44
One Piece 018 – Bajak Laut Buggy2019/03/022019-03-02 20:37:49
One Piece 017 – Perbedaan Level2019/03/022019-03-02 20:36:34
One Piece 016 – Melawan Kru Bajak Laut Buggy2019/03/022019-03-02 20:35:46
One Piece 015 – Gong2019/03/022019-03-02 19:16:09
One Piece 014 – Nekat2019/03/022019-03-02 19:06:32
One Piece 013 – Harta Paling Berharga2019/03/022019-03-02 18:34:44
One Piece 012 – Anjing2019/03/022019-03-02 18:31:01
One Piece 011 – Melarikan Diri2019/03/022019-03-02 18:24:05
One Piece 010 – Situasi di Bar2019/03/022019-03-02 18:16:36
One Piece 009 – Melawan Buggy2019/03/022019-03-02 15:34:57
One Piece 008 – Nami2019/03/022019-03-02 15:33:08
One Piece 007 – Teman2019/03/022019-03-02 15:32:24
One Piece 006 – Kru Pertama2019/03/022019-03-02 15:31:32
One Piece 005 – Raja Bajak Laut dan Pendekar Pedang2019/03/022019-03-02 15:26:30
One Piece 004 – Morgan si Tangan Kapak2019/03/022019-03-02 14:33:15
One Piece 003 – Munculnya Zoro, Pemburu Bajak Laut2019/03/022019-03-02 14:09:11
One Piece 002 – Pemuda Bernama Luffy2019/03/022019-03-02 14:06:17
One Piece 001 – Romance Dawn2019/03/022019-03-02 11:36:46
Boruto 032 – Rasa Tanggung Jawab2019/03/012019-03-01 16:40:33
Naruto 690 – Ninja2019/02/282019-02-28 10:14:15
Naruto 689 – Dimensi Baru2019/02/282019-02-28 10:11:20
Naruto 688 – Sharingan2019/02/272019-02-27 22:10:09
Naruto 687 – Kau Pasti Bisa2019/02/272019-02-27 22:08:37
Naruto 686 – Mereka yang Pergi2019/02/272019-02-27 22:07:50
Naruto 685 – Semua yang Kupunya2019/02/272019-02-27 21:36:43
Naruto 684 – Harus Dibunuh2019/02/272019-02-27 21:35:15
Naruto 682 – Kuyakin Kau Tak Pernah Melihatnya2019/02/272019-02-27 21:00:06
Naruto 681 – Air Mata Kaguya2019/02/272019-02-27 20:43:30
Naruto 680 – Sekali Lagi2019/02/272019-02-27 20:26:45
Naruto 679 – Awal Segalanya2019/02/272019-02-27 20:09:44
Naruto 678 – Penyelamat Dunia2019/02/272019-02-27 20:09:05
Naruto 677 – Tsukyomi Tak Terbatas2019/02/272019-02-27 20:02:07
[download-attachments container=”div” title=”” style=”table” display_icon=”0″ display_user=”0″]
TINJAUAN IKHTISAR
Rating

LEAVE A REPLY

Please enter your comment!
Please enter your name here